Observations for MANCHESTER INTL, United Kingdom (EGCC)

EGCC 190320Z AUTO VRB02KT 9999 NCD 14/12 Q1007 NOSIG
EGCC 190250Z AUTO 18004KT 140V230 9999 NCD 14/13 Q1007 NOSIG
EGCC 190220Z AUTO 19006KT 140V230 9999 NCD 15/13 Q1007  
EGCC 190150Z AUTO 18005KT 050V220 9999 NCD 15/13 Q1007 NOSIG
EGCC 190120Z AUTO 19006KT 150V230 9999 NCD 15/13 Q1007 NOSIG
EGCC 190050Z AUTO 19008KT 150V220 9999 NCD 15/13 Q1007 NOSIG
EGCC 190020Z AUTO 19007KT 150V230 9999 NCD 15/13 Q1007 NOSIG
EGCC 182350Z AUTO 20009KT 9999 NCD 15/13 Q1007  
EGCC 182320Z AUTO 19010KT 130V220 9999 NCD 15/13 Q1006 NOSIG
EGCC 182250Z AUTO 19007KT 150V230 9999 //////TCU 15/14 Q1006 NOSIG  
EGCC 182220Z AUTO 20006KT 160V230 9999 //////TCU 15/14 Q1007 NOSIG  
EGCC 182150Z AUTO 20007KT 170V230 9999 //////TCU 15/14 Q1007 NOSIG  
EGCC 182120Z AUTO 20009KT 170V230 9999 SCT046/// //////TCU 15/14 Q1006 NOSIG
EGCC 182050Z AUTO 20008KT 150V230 9999 -RA //////TCU 15/14 Q1006 NOSIG  
EGCC 182020Z AUTO 20008KT 150V230 9999 -RA FEW044/// //////CB 15/15 Q1006 NOSIG 
EGCC 181950Z 23010KT 6000 -RA BKN021 16/15 Q1006 RERA TEMPO RA  
EGCC 181920Z 21006KT 150V230 5000 RA SCT032 16/15 Q1006 TEMPO 4000 +SHRA
EGCC 181920Z 21006KT 150V230 5000 RA SCT032 16/15 Q1006 TEMPO 4000 SHRA
EGCC 181850Z AUTO 20010KT 170V230 9999 -RA //////TCU 16/14 Q1006 TEMPO 4000 +SHRA   
EGCC 181820Z AUTO 21010KT 9999 -RA NCD 18/13 Q1005 TEMPO 4000 +SHRA 
EGCC 181750Z 21011KT 9999 SCT033 19/13 Q1005 TEMPO 4000 +SHRA   
EGCC 181720Z 21013KT 170V230 9999 SCT033 19/13 Q1005 TEMPO SHRA 
EGCC 181650Z 21014G26KT 150V240 9999 FEW036 20/14 Q1005 
EGCC 181620Z 21012KT 190V250 9999 SCT033 20/14 Q1005 NOSIG  
EGCC 181550Z AUTO 22014KT 9999 SCT035 SCT042 21/13 Q1005 NOSIG  
EGCC 181520Z AUTO 23018G28KT 9999 SCT034 21/13 Q1005 NOSIG  
EGCC 181450Z 22013G23KT 9999 SCT031 20/14 Q1005 NOSIG   
EGCC 181420Z 21008KT 180V240 9999 BKN028 19/15 Q1005 NOSIG  
EGCC 181350Z 21011KT 170V240 9999 4000SE -RA SCT024 BKN031 17/15 Q1005 NOSIG
EGCC 181320Z AUTO 22013KT 9999 SCT026 BKN031 19/14 Q1005 NOSIG  
EGCC 181250Z AUTO 22014G25KT 160V240 9999 BKN026 19/13 Q1004 NOSIG  
EGCC 181220Z AUTO 23012KT 190V250 9999 BKN030 19/13 Q1004 NOSIG 
EGCC 181150Z AUTO 24016KT 9999 BKN033 19/12 Q1003 NOSIG 
EGCC 181120Z AUTO 24023KT 9999 NCD 20/12 Q1003 NOSIG
EGCC 181050Z AUTO 23019KT 9999 FEW028 19/12 Q1002 NOSIG 
EGCC 181020Z 23015KT 9999 SCT023 19/13 Q1002 TEMPO 24025G35KT   
EGCC 180950Z AUTO 22016KT 9999 BKN020 OVC039 19/15 Q1001 TEMPO 24022G35KT   
EGCC 180920Z 22012KT 9999 SCT018 BKN023 18/15 Q1000 TEMPO 24022G35KT
EGCC 180850Z 21012KT 9999 SCT017 BKN025 18/15 Q0999 TEMPO 24022G35KT
EGCC 180820Z 21011KT 9999 FEW015 BKN021 18/15 Q0999 TEMPO 24022G35KT
EGCC 180750Z 21012KT 9999 SCT017 BKN023 18/15 Q0998 TEMPO BKN012
EGCC 180720Z 20013G23KT 9999 FEW012 BKN019 18/15 Q0998 TEMPO BKN012 
EGCC 180650Z 20011G21KT 9999 VCSH SCT013 OVC031 17/16 Q0997 
EGCC 180620Z AUTO 19013KT 150V220 9999 BKN014 BKN018 OVC024 18/16 Q0996 TEMPO 20016G26KT
EGCC 180550Z AUTO 19013G23KT 140V220 9999 -RA BKN016 OVC022 18/16 Q0996 TEMPO BKN011
EGCC 180520Z AUTO 17010G20KT 110V210 9999 FEW019 SCT026 BKN033 18/15 Q0996 NOSIG
EGCC 180450Z AUTO 16008KT 100V230 9999 BKN017 BKN022 OVC031 18/15 Q0996 NOSIG   
EGCC 180420Z AUTO 16007KT 110V210 9999 BKN018 OVC048 17/14 Q0997 TEMPO 17017G27KT   
EGCC 180350Z AUTO 16007G17KT 100V220 9999 OVC019 17/14 Q0997 TEMPO 17017G227KT  
EGCC 180320Z AUTO 15007KT 100V230 9999 BKN020 OVC027 17/13 Q0998 NOSIG  
EGCC 180250Z AUTO 15006KT 100V220 9999 BKN032 17/13 Q0999 NOSIG